createdAt,value
2019-02-08T00:00:29.199Z,99.90
2019-02-08T00:03:01.255Z,99.90
2019-02-08T00:05:33.356Z,99.90
2019-02-08T00:08:05.626Z,99.90
2019-02-08T00:10:37.761Z,99.90
2019-02-08T00:13:09.877Z,99.90
2019-02-08T00:15:42.277Z,99.90
2019-02-08T00:18:15.043Z,99.90
2019-02-08T00:20:47.238Z,99.90
2019-02-08T00:23:26.719Z,99.90
2019-02-08T00:25:53.121Z,99.90
2019-02-08T00:28:25.188Z,99.90
2019-02-08T00:30:57.301Z,99.90
2019-02-08T00:33:29.366Z,99.90
2019-02-08T00:36:01.462Z,99.90
2019-02-08T00:38:33.531Z,99.90
2019-02-08T00:41:05.766Z,99.90
2019-02-08T00:43:37.826Z,99.90
2019-02-08T00:46:10.033Z,99.90
2019-02-08T00:48:42.096Z,99.90
2019-02-08T00:51:14.192Z,99.90
2019-02-08T00:53:46.252Z,99.90
2019-02-08T00:56:18.352Z,99.90
2019-02-08T00:58:50.408Z,99.90
2019-02-08T01:01:22.501Z,99.90
2019-02-08T01:03:54.559Z,99.90
2019-02-08T01:06:26.668Z,99.90
2019-02-08T01:08:58.730Z,99.90
2019-02-08T01:11:30.825Z,99.90
2019-02-08T01:14:02.876Z,99.90
2019-02-08T01:16:34.970Z,99.90
2019-02-08T01:19:07.524Z,99.90
2019-02-08T01:21:39.829Z,99.90
2019-02-08T01:24:11.888Z,99.90
2019-02-08T01:26:43.979Z,99.90
2019-02-08T01:29:15.956Z,99.90
2019-02-08T01:31:47.970Z,99.90
2019-02-08T01:34:20.027Z,99.90
2019-02-08T01:36:52.048Z,99.90
2019-02-08T01:39:24.147Z,99.90
2019-02-08T01:41:56.459Z,99.90
2019-02-08T01:44:28.557Z,99.90
2019-02-08T01:47:00.672Z,99.90
2019-02-08T01:49:32.657Z,99.90
2019-02-08T01:52:04.848Z,99.90
2019-02-08T01:54:36.830Z,99.90
2019-02-08T01:57:08.921Z,99.90
2019-02-08T01:59:40.998Z,99.90
2019-02-08T02:02:13.097Z,99.90
2019-02-08T02:04:45.188Z,99.90
2019-02-08T02:07:17.318Z,99.90
2019-02-08T02:09:49.699Z,99.90
2019-02-08T02:12:21.732Z,99.90
2019-02-08T02:14:56.452Z,99.90
2019-02-08T02:17:28.477Z,99.90
2019-02-08T02:20:00.772Z,99.90
2019-02-08T02:22:32.867Z,99.90
2019-02-08T02:25:08.046Z,99.90
2019-02-08T02:27:40.145Z,99.90
2019-02-08T02:30:16.843Z,99.90
2019-02-08T02:32:49.051Z,99.90
2019-02-08T02:35:21.178Z,99.90
2019-02-08T02:37:53.155Z,99.90
2019-02-08T02:40:25.412Z,99.90
2019-02-08T02:42:57.638Z,99.90
2019-02-08T02:45:33.560Z,99.90
2019-02-08T02:48:07.451Z,99.90
2019-02-08T02:50:39.523Z,99.90
2019-02-08T02:53:12.114Z,99.90
2019-02-08T02:55:44.149Z,99.90
2019-02-08T02:58:16.132Z,99.90
2019-02-08T03:00:49.678Z,99.90
2019-02-08T03:03:21.705Z,99.90
2019-02-08T03:05:53.605Z,99.90
2019-02-08T03:08:25.550Z,99.90
2019-02-08T03:10:57.619Z,99.90
2019-02-08T03:13:29.723Z,99.90
2019-02-08T03:16:01.825Z,99.90
2019-02-08T03:18:33.932Z,99.90
2019-02-08T03:21:06.126Z,99.90
2019-02-08T03:23:38.158Z,99.90
2019-02-08T03:26:10.453Z,99.90
2019-02-08T03:28:42.479Z,99.90
2019-02-08T03:31:14.499Z,99.90
2019-02-08T03:33:46.482Z,99.90
2019-02-08T03:36:18.431Z,99.90
2019-02-08T03:38:50.493Z,99.90
2019-02-08T03:41:22.815Z,99.90
2019-02-08T03:43:54.763Z,99.90
2019-02-08T03:46:26.817Z,99.90
2019-02-08T03:48:59.029Z,99.90
2019-02-08T03:51:31.061Z,99.90
2019-02-08T03:54:03.177Z,99.90
2019-02-08T03:56:35.067Z,99.90
2019-02-08T03:59:07.471Z,99.90
2019-02-08T04:01:39.491Z,99.90
2019-02-08T04:04:17.602Z,99.90
2019-02-08T04:06:49.572Z,99.90
2019-02-08T04:09:21.670Z,99.90
2019-02-08T04:11:53.711Z,99.90
2019-02-08T04:14:25.655Z,99.90
2019-02-08T04:16:57.714Z,99.90
2019-02-08T04:19:29.798Z,99.90
2019-02-08T04:22:01.732Z,99.90
2019-02-08T04:24:33.686Z,99.90
2019-02-08T04:27:05.621Z,99.90
2019-02-08T04:29:39.012Z,99.90
2019-02-08T04:32:10.963Z,99.90
2019-02-08T04:34:42.907Z,99.90
2019-02-08T04:37:14.841Z,99.90
2019-02-08T04:39:46.909Z,99.90
2019-02-08T04:42:18.968Z,99.90
2019-02-08T04:44:51.175Z,99.90
2019-02-08T04:47:23.197Z,99.90
2019-02-08T04:49:55.341Z,99.90
2019-02-08T04:52:27.272Z,99.90
2019-02-08T04:54:59.339Z,99.90
2019-02-08T04:57:31.279Z,99.90
2019-02-08T05:00:03.329Z,99.90
2019-02-08T05:02:35.265Z,99.90
2019-02-08T05:05:08.296Z,99.90
2019-02-08T05:07:40.220Z,99.90
2019-02-08T05:10:14.361Z,99.90
2019-02-08T05:12:46.402Z,99.90
2019-02-08T05:15:19.553Z,99.90
2019-02-08T05:17:51.786Z,99.90
2019-02-08T05:20:26.750Z,99.90
2019-02-08T05:22:58.847Z,99.90
2019-02-08T05:25:31.372Z,99.90
2019-02-08T05:28:03.502Z,99.90
2019-02-08T05:30:37.259Z,99.90
2019-02-08T05:33:09.355Z,99.90
2019-02-08T05:35:41.378Z,99.90
2019-02-08T05:38:13.503Z,99.90
2019-02-08T05:40:45.600Z,99.90
2019-02-08T05:43:17.630Z,99.90
2019-02-08T05:45:49.774Z,99.90
2019-02-08T05:48:21.859Z,99.90
2019-02-08T05:50:53.951Z,99.90
2019-02-08T05:53:26.005Z,99.90
2019-02-08T05:55:58.105Z,99.90
2019-02-08T05:58:30.134Z,99.90
2019-02-08T06:01:02.236Z,99.90
2019-02-08T06:03:34.422Z,99.90
2019-02-08T06:06:07.096Z,99.90
2019-02-08T06:08:39.203Z,99.90
2019-02-08T06:11:11.308Z,99.90
2019-02-08T06:13:43.495Z,99.90
2019-02-08T06:16:15.570Z,99.90
2019-02-08T06:18:47.624Z,99.90
2019-02-08T06:21:19.719Z,99.90
2019-02-08T06:23:51.646Z,99.90
2019-02-08T06:26:23.724Z,99.90
2019-02-08T06:29:03.265Z,99.90
2019-02-08T06:31:35.328Z,99.90
2019-02-08T06:34:07.537Z,99.90
2019-02-08T06:36:39.560Z,99.90
2019-02-08T06:39:12.080Z,99.90
2019-02-08T06:41:44.103Z,99.90
2019-02-08T06:44:16.726Z,99.90
2019-02-08T06:46:48.641Z,99.90
2019-02-08T06:49:20.580Z,99.90
2019-02-08T06:51:52.535Z,99.90
2019-02-08T06:54:24.475Z,99.90
2019-02-08T06:57:08.425Z,99.90
2019-02-08T06:59:55.564Z,99.90
2019-02-08T07:02:46.336Z,99.90
2019-02-08T07:05:25.731Z,99.90
2019-02-08T07:08:25.456Z,99.90
2019-02-08T07:11:09.480Z,99.90
2019-02-08T07:14:00.509Z,99.90
2019-02-08T07:16:51.272Z,99.90
2019-02-08T07:19:36.307Z,99.90
2019-02-08T07:22:18.981Z,99.90
2019-02-08T07:25:02.814Z,99.90
2019-02-08T07:27:43.167Z,99.90
2019-02-08T07:30:44.169Z,99.90
2019-02-08T07:33:44.979Z,99.90
2019-02-08T07:36:28.547Z,99.90
2019-02-08T07:39:16.231Z,99.90
2019-02-08T07:42:11.074Z,99.90
2019-02-08T07:45:01.789Z,99.90
2019-02-08T07:47:47.743Z,99.90
2019-02-08T07:50:38.001Z,99.90
2019-02-08T07:53:47.173Z,99.90
2019-02-08T07:56:40.174Z,99.90
2019-02-08T07:59:27.551Z,99.90
2019-02-08T08:02:30.700Z,99.90
2019-02-08T08:05:13.321Z,99.90
2019-02-08T08:08:13.708Z,99.90
2019-02-08T08:10:53.799Z,99.90
2019-02-08T08:13:37.566Z,99.90
2019-02-08T08:16:20.911Z,99.90
2019-02-08T08:19:15.980Z,99.90
2019-02-08T08:22:08.901Z,99.60
2019-02-08T08:24:55.961Z,98.50
2019-02-08T08:27:42.992Z,98.30
2019-02-08T08:30:42.247Z,95.90
2019-02-08T08:33:34.092Z,83.00
2019-02-08T08:37:01.868Z,64.60
2019-02-08T08:40:49.500Z,56.80
2019-02-08T08:44:10.465Z,49.00
2019-02-08T08:47:46.890Z,46.50
2019-02-08T08:51:08.493Z,42.50
2019-02-08T08:54:48.892Z,42.10
2019-02-08T08:58:23.159Z,38.50
2019-02-08T09:02:08.661Z,37.90
2019-02-08T09:05:11.649Z,39.30
2019-02-08T09:08:38.935Z,40.70
2019-02-08T09:11:57.692Z,43.90
2019-02-08T09:15:14.890Z,44.90
2019-02-08T09:18:57.026Z,45.20
2019-02-08T09:22:26.104Z,43.50
2019-02-08T09:25:50.088Z,42.40
2019-02-08T09:28:55.743Z,41.50
2019-02-08T09:33:00.188Z,42.30
2019-02-08T09:36:32.720Z,43.10
2019-02-08T09:39:46.597Z,42.90
2019-02-08T09:43:13.254Z,43.20
2019-02-08T09:46:43.831Z,46.20
2019-02-08T09:50:06.198Z,50.10
2019-02-08T09:53:39.565Z,49.70
2019-02-08T09:57:12.658Z,51.50
2019-02-08T10:00:30.674Z,51.80
2019-02-08T10:03:56.817Z,51.70
2019-02-08T10:07:10.483Z,51.80
2019-02-08T10:10:37.816Z,52.00
2019-02-08T10:14:21.148Z,51.90
2019-02-08T10:17:51.611Z,52.10
2019-02-08T10:21:35.414Z,53.40
2019-02-08T10:24:38.921Z,53.10
2019-02-08T10:28:06.340Z,54.00
2019-02-08T10:31:41.179Z,53.60
2019-02-08T10:35:07.283Z,55.10
2019-02-08T10:38:55.520Z,55.10
2019-02-08T10:42:38.986Z,54.80
2019-02-08T10:46:03.758Z,56.60
2019-02-08T10:49:41.277Z,55.40
2019-02-08T10:53:55.163Z,54.90
2019-02-08T10:57:25.328Z,54.50
2019-02-08T11:00:58.117Z,54.00
2019-02-08T11:04:35.884Z,53.40
2019-02-08T11:08:28.644Z,53.20
2019-02-08T11:12:00.437Z,54.70
2019-02-08T11:15:23.863Z,54.40
2019-02-08T11:18:50.023Z,52.90
2019-02-08T11:21:22.127Z,52.40
2019-02-08T11:23:54.296Z,53.60
2019-02-08T11:26:26.624Z,52.80
2019-02-08T11:28:58.611Z,53.10
2019-02-08T11:31:30.755Z,50.30
2019-02-08T11:34:02.921Z,50.60
2019-02-08T11:36:35.850Z,48.40
2019-02-08T11:39:17.335Z,48.30
2019-02-08T11:41:51.111Z,48.00
2019-02-08T11:44:24.429Z,46.90
2019-02-08T11:46:56.552Z,46.60
2019-02-08T11:49:28.539Z,45.00
2019-02-08T11:52:00.570Z,44.70
2019-02-08T11:54:33.464Z,42.90
2019-02-08T11:57:05.967Z,40.50
2019-02-08T11:59:38.323Z,39.00
2019-02-08T12:02:10.523Z,38.80
2019-02-08T12:04:45.708Z,38.30
2019-02-08T12:07:17.739Z,37.80
2019-02-08T12:09:49.798Z,36.20
2019-02-08T12:12:21.895Z,35.70
2019-02-08T12:14:53.942Z,36.40
2019-02-08T12:17:25.966Z,36.90
2019-02-08T12:19:58.224Z,37.50
2019-02-08T12:22:30.334Z,38.10
2019-02-08T12:25:02.322Z,38.00
2019-02-08T12:27:34.350Z,36.70
2019-02-08T12:30:12.057Z,36.60
2019-02-08T12:32:44.083Z,36.30
2019-02-08T12:35:16.276Z,36.00
2019-02-08T12:37:48.674Z,36.80
2019-02-08T12:40:20.770Z,34.80
2019-02-08T12:42:52.827Z,34.90
2019-02-08T12:45:25.151Z,36.80
2019-02-08T12:47:57.266Z,39.10
2019-02-08T12:50:29.620Z,38.90
2019-02-08T12:53:01.746Z,38.70
2019-02-08T12:55:33.809Z,38.60
2019-02-08T12:58:05.907Z,37.00
2019-02-08T13:00:37.969Z,36.20
2019-02-08T13:03:10.098Z,34.80
2019-02-08T13:05:42.502Z,35.10
2019-02-08T13:08:14.632Z,35.60
2019-02-08T13:10:46.812Z,36.90
2019-02-08T13:13:18.833Z,36.80
2019-02-08T13:15:51.901Z,37.40
2019-02-08T13:18:25.125Z,37.50
2019-02-08T13:20:57.182Z,36.40
2019-02-08T13:23:29.288Z,35.90
2019-02-08T13:26:01.472Z,35.10
2019-02-08T13:28:33.575Z,35.60
2019-02-08T13:31:05.654Z,35.80
2019-02-08T13:33:37.854Z,36.60
2019-02-08T13:36:15.751Z,36.80
2019-02-08T13:38:48.086Z,36.90
2019-02-08T13:41:20.298Z,37.10
2019-02-08T13:43:52.327Z,38.40
2019-02-08T13:46:24.399Z,39.20
2019-02-08T13:48:56.510Z,40.40
2019-02-08T13:51:28.572Z,40.70
2019-02-08T13:54:00.606Z,42.50
2019-02-08T13:56:33.041Z,42.60
2019-02-08T13:59:05.355Z,43.20
2019-02-08T14:01:37.416Z,43.90
2019-02-08T14:04:09.531Z,44.10
2019-02-08T14:06:41.523Z,44.80
2019-02-08T14:09:16.680Z,45.80
2019-02-08T14:11:48.742Z,45.90
2019-02-08T14:14:20.839Z,46.70
2019-02-08T14:16:52.829Z,46.90
2019-02-08T14:19:24.922Z,47.00
2019-02-08T14:21:56.911Z,46.20
2019-02-08T14:24:28.936Z,46.30
2019-02-08T14:27:08.399Z,46.80
2019-02-08T14:29:35.560Z,47.60
2019-02-08T14:32:07.625Z,48.50
2019-02-08T14:34:43.614Z,50.20
2019-02-08T14:37:13.697Z,50.70
2019-02-08T14:39:45.720Z,51.40
2019-02-08T14:42:17.748Z,51.40
2019-02-08T14:44:49.851Z,52.10
2019-02-08T14:47:21.923Z,53.20
2019-02-08T14:49:54.015Z,54.30
2019-02-08T14:52:25.991Z,55.10
2019-02-08T14:54:58.008Z,56.20
2019-02-08T14:57:29.880Z,58.40
2019-02-08T15:00:01.828Z,59.60
2019-02-08T15:02:34.214Z,60.80
2019-02-08T15:05:07.821Z,61.90
2019-02-08T15:07:39.837Z,61.80
2019-02-08T15:10:19.405Z,63.30
2019-02-08T15:12:51.407Z,63.90
2019-02-08T15:15:23.443Z,64.70
2019-02-08T15:17:55.356Z,65.40
2019-02-08T15:20:30.486Z,66.30
2019-02-08T15:23:02.600Z,67.40
2019-02-08T15:25:37.107Z,68.60
2019-02-08T15:28:09.341Z,69.40
2019-02-08T15:30:41.617Z,69.90
2019-02-08T15:33:13.529Z,70.10
2019-02-08T15:35:45.467Z,70.20
2019-02-08T15:38:17.728Z,70.50
2019-02-08T15:40:53.530Z,71.00
2019-02-08T15:43:26.366Z,71.70
2019-02-08T15:46:02.042Z,71.70
2019-02-08T15:48:34.934Z,72.50
2019-02-08T15:51:07.473Z,73.10
2019-02-08T15:53:39.480Z,73.30
2019-02-08T15:56:17.375Z,74.00
2019-02-08T15:58:49.271Z,74.20
2019-02-08T16:01:21.420Z,74.20
2019-02-08T16:03:53.330Z,74.80
2019-02-08T16:06:26.877Z,74.80
2019-02-08T16:08:59.114Z,75.10
2019-02-08T16:11:31.051Z,75.50
2019-02-08T16:14:03.018Z,76.10
2019-02-08T16:16:35.288Z,76.60
2019-02-08T16:19:07.285Z,77.20
2019-02-08T16:21:39.240Z,77.50
2019-02-08T16:24:11.247Z,78.40
2019-02-08T16:26:43.193Z,79.40
2019-02-08T16:29:15.195Z,80.60
2019-02-08T16:31:47.137Z,82.30
2019-02-08T16:34:19.546Z,84.00
2019-02-08T16:36:51.755Z,85.30
2019-02-08T16:39:23.689Z,85.50
2019-02-08T16:41:55.662Z,85.60
2019-02-08T16:44:27.699Z,86.00
2019-02-08T16:47:00.224Z,86.10
2019-02-08T16:49:32.145Z,85.30
2019-02-08T16:52:04.488Z,85.50
2019-02-08T16:54:36.429Z,86.30
2019-02-08T16:57:08.368Z,87.20
2019-02-08T16:59:40.579Z,87.60
2019-02-08T17:02:13.517Z,87.90
2019-02-08T17:04:45.452Z,88.50
2019-02-08T17:07:17.386Z,88.80
2019-02-08T17:09:49.467Z,89.30
2019-02-08T17:12:21.505Z,90.10
2019-02-08T17:14:53.566Z,90.50
2019-02-08T17:17:27.559Z,90.70
2019-02-08T17:19:59.490Z,91.10
2019-02-08T17:22:31.431Z,91.10
2019-02-08T17:25:03.470Z,91.90
2019-02-08T17:27:35.428Z,92.50
2019-02-08T17:30:12.015Z,93.80
2019-02-08T17:32:44.052Z,94.30
2019-02-08T17:35:17.700Z,94.60
2019-02-08T17:37:49.643Z,94.90
2019-02-08T17:40:24.724Z,95.10
2019-02-08T17:42:56.781Z,94.90
2019-02-08T17:45:28.858Z,95.00
2019-02-08T17:48:03.415Z,95.00
2019-02-08T17:50:35.584Z,94.90
2019-02-08T17:53:07.541Z,95.10
2019-02-08T17:55:39.582Z,95.20
2019-02-08T17:58:11.526Z,95.20
2019-02-08T18:00:47.271Z,95.30
2019-02-08T18:03:19.427Z,95.10
2019-02-08T18:05:51.329Z,95.00
2019-02-08T18:08:23.364Z,95.20
2019-02-08T18:10:55.307Z,95.20
2019-02-08T18:13:27.248Z,95.30
2019-02-08T18:15:59.193Z,95.50
2019-02-08T18:18:31.136Z,95.30
2019-02-08T18:21:10.048Z,95.50
2019-02-08T18:23:41.982Z,95.70
2019-02-08T18:26:13.930Z,95.60
2019-02-08T18:28:45.882Z,95.50
2019-02-08T18:31:17.812Z,95.40
2019-02-08T18:33:49.755Z,95.50
2019-02-08T18:36:21.951Z,95.30
2019-02-08T18:38:53.911Z,95.10
2019-02-08T18:41:26.122Z,95.10
2019-02-08T18:43:58.057Z,95.00
2019-02-08T18:46:30.041Z,95.00
2019-02-08T18:49:02.282Z,95.10
2019-02-08T18:51:34.217Z,94.90
2019-02-08T18:54:06.685Z,94.70
2019-02-08T18:56:40.900Z,94.70
2019-02-08T18:59:12.829Z,94.60
2019-02-08T19:01:44.779Z,94.50
2019-02-08T19:04:17.797Z,94.50
2019-02-08T19:06:49.719Z,94.30
2019-02-08T19:09:22.445Z,94.20
2019-02-08T19:11:54.483Z,94.20
2019-02-08T19:14:26.471Z,94.10
2019-02-08T19:16:58.570Z,94.10
2019-02-08T19:19:30.512Z,93.70
2019-02-08T19:22:02.449Z,93.60
2019-02-08T19:24:34.986Z,93.50
2019-02-08T19:27:07.864Z,93.40
2019-02-08T19:29:46.108Z,93.50
2019-02-08T19:32:19.205Z,93.30
2019-02-08T19:34:52.258Z,93.30
2019-02-08T19:37:24.316Z,93.40
2019-02-08T19:39:56.967Z,93.40
2019-02-08T19:42:36.213Z,93.50
2019-02-08T19:45:11.252Z,93.40
2019-02-08T19:47:44.434Z,93.20
2019-02-08T19:50:34.124Z,93.00
2019-02-08T19:53:07.349Z,92.70
2019-02-08T19:55:39.894Z,92.40
2019-02-08T19:58:13.048Z,92.30
2019-02-08T20:00:45.226Z,92.30
2019-02-08T20:03:17.276Z,91.80
2019-02-08T20:05:49.317Z,91.40
2019-02-08T20:08:21.251Z,91.30
2019-02-08T20:10:53.384Z,91.50
2019-02-08T20:13:25.423Z,91.60
2019-02-08T20:15:57.410Z,91.70
2019-02-08T20:18:29.692Z,91.90
2019-02-08T20:21:01.614Z,92.00
2019-02-08T20:23:33.556Z,92.20
2019-02-08T20:26:05.900Z,92.40
2019-02-08T20:28:42.324Z,92.40
2019-02-08T20:31:11.471Z,92.50
2019-02-08T20:33:43.407Z,92.70
2019-02-08T20:36:15.353Z,92.80
2019-02-08T20:38:47.297Z,92.80
2019-02-08T20:41:19.411Z,92.90
2019-02-08T20:43:51.449Z,93.10
2019-02-08T20:46:23.483Z,93.40
2019-02-08T20:48:55.527Z,93.30
2019-02-08T20:51:27.468Z,92.90
2019-02-08T20:53:59.508Z,92.50
2019-02-08T20:56:31.545Z,92.40
2019-02-08T20:59:03.587Z,92.30
2019-02-08T21:01:35.633Z,92.20
2019-02-08T21:04:08.077Z,92.10
2019-02-08T21:06:40.021Z,92.10
2019-02-08T21:09:15.251Z,92.00
2019-02-08T21:11:47.218Z,91.80
2019-02-08T21:14:19.158Z,91.80
2019-02-08T21:16:51.205Z,91.90
2019-02-08T21:19:23.144Z,91.60
2019-02-08T21:21:55.095Z,91.70
2019-02-08T21:24:27.131Z,91.50
2019-02-08T21:26:59.068Z,91.50
2019-02-08T21:29:31.104Z,91.20
2019-02-08T21:32:03.416Z,91.20
2019-02-08T21:34:35.360Z,90.90
2019-02-08T21:37:07.414Z,90.80
2019-02-08T21:39:39.356Z,90.60
2019-02-08T21:42:11.876Z,90.40
2019-02-08T21:44:43.817Z,90.10
2019-02-08T21:47:15.756Z,89.90
2019-02-08T21:49:47.686Z,89.00
2019-02-08T21:52:20.505Z,88.50
2019-02-08T21:54:52.597Z,88.10
2019-02-08T21:57:24.532Z,87.60
2019-02-08T21:59:56.462Z,86.80
2019-02-08T22:02:28.404Z,86.90
2019-02-08T22:05:00.695Z,87.00
2019-02-08T22:07:33.537Z,86.50
2019-02-08T22:10:09.040Z,85.60
2019-02-08T22:12:41.175Z,84.80
2019-02-08T22:15:17.388Z,84.50
2019-02-08T22:17:49.509Z,84.70
2019-02-08T22:20:21.565Z,84.70
2019-02-08T22:22:53.595Z,84.70
2019-02-08T22:25:26.733Z,85.10
2019-02-08T22:27:59.742Z,84.50
2019-02-08T22:30:33.566Z,85.00
2019-02-08T22:33:06.342Z,83.90
2019-02-08T22:35:38.765Z,83.90
2019-02-08T22:38:11.508Z,83.80
2019-02-08T22:40:43.449Z,83.90
2019-02-08T22:43:15.605Z,84.50
2019-02-08T22:45:47.768Z,85.00
2019-02-08T22:48:19.775Z,85.20
2019-02-08T22:50:51.709Z,85.80
2019-02-08T22:53:23.642Z,86.20
2019-02-08T22:55:55.571Z,86.70
2019-02-08T22:58:27.515Z,87.30
2019-02-08T23:01:33.503Z,88.00
2019-02-08T23:04:08.541Z,88.40
2019-02-08T23:06:45.010Z,88.50
2019-02-08T23:09:22.926Z,88.10
2019-02-08T23:11:55.025Z,88.50
2019-02-08T23:14:27.066Z,88.80
2019-02-08T23:16:59.067Z,89.20
2019-02-08T23:19:31.107Z,89.40
2019-02-08T23:22:02.999Z,89.40
2019-02-08T23:24:34.939Z,89.30
2019-02-08T23:27:06.950Z,89.60
2019-02-08T23:29:38.891Z,89.80
2019-02-08T23:32:10.998Z,89.10
2019-02-08T23:34:42.942Z,89.00
2019-02-08T23:37:14.836Z,88.90
2019-02-08T23:39:46.777Z,88.70
2019-02-08T23:42:18.738Z,88.00
2019-02-08T23:44:50.698Z,87.70
2019-02-08T23:47:22.637Z,87.10
2019-02-08T23:49:54.572Z,86.70
2019-02-08T23:52:26.470Z,86.30
2019-02-08T23:54:58.399Z,86.20
2019-02-08T23:57:30.295Z,86.10
